Decoded Metar for KGGW (GLASGOW in MT, USA) (IATA:GGW) | Meteo·Mobile Aviation Weather
aviador You're here:

KGGW Decoded Metar

GLASGOW in MT, USA
Report Time2018-12-14 16:53:00
UTC Time2018-12-14 17:52:29
Flight Rules vfr VFR
Wind130° at 10 kt
W.Decomp.*RWY 12: 10.0 kt HW 0.2 kt LCW
RWY 08: 7.8 kt HW 6.3 kt RCW
W.Rank130° ranks 11
Current wind is above 130° avg. (8.8)
Visibility9999 m
Phenomena:N/A
Clouds:N/A
Expected CloudBase > 2,000 ft AGL from Temp-Dew spread
CeilingNone
Temp-1°C (ISA -11)
Dew Point-6°C (69% RH)
AAT-7.3°C
QNH1015 hPa
Density Alt873 ft
Elevation2,277 ft
Report Wrong Elevation
Raw Report
KGGW 141653Z AUTO 13010KT 10SM CLR M01/M06 A2997 RMK AO2 SLP176
T10111056=

Extra information for KGGW:More info

Metar Taf Metar & Taf Last 4 Metars F.Rules Stats Wind Profile Meteogram Temp Stats Airport Information Weather charts Add Link Nearby VenuesMetar ALERT Operation Metar Decoded Social comments

AIRNAV info for KGGW